sensor_id;sensor_type;location;lat;lon;timestamp;pressure;altitude;pressure_sealevel;temperature;humidity
11523;BME280;40093;43.224;27.910;2023-01-28T00:01:59;99686.41;;;5.22;100.00
11523;BME280;40093;43.224;27.910;2023-01-28T00:04:26;99679.97;;;5.11;100.00
11523;BME280;40093;43.224;27.910;2023-01-28T00:06:53;99687.22;;;5.04;100.00
11523;BME280;40093;43.224;27.910;2023-01-28T00:09:20;99692.94;;;4.99;100.00
11523;BME280;40093;43.224;27.910;2023-01-28T00:11:47;99686.63;;;4.95;100.00
11523;BME280;40093;43.224;27.910;2023-01-28T00:14:14;99697.19;;;4.96;100.00
11523;BME280;40093;43.224;27.910;2023-01-28T00:16:42;99690.38;;;5.06;100.00
11523;BME280;40093;43.224;27.910;2023-01-28T00:19:09;99695.59;;;5.14;100.00
11523;BME280;40093;43.224;27.910;2023-01-28T00:21:36;99701.06;;;5.14;100.00
11523;BME280;40093;43.224;27.910;2023-01-28T00:24:03;99701.50;;;5.16;100.00
11523;BME280;40093;43.224;27.910;2023-01-28T00:26:31;99694.69;;;5.07;100.00
11523;BME280;40093;43.224;27.910;2023-01-28T00:28:58;99705.59;;;5.07;100.00
11523;BME280;40093;43.224;27.910;2023-01-28T00:31:26;99696.69;;;5.10;100.00
11523;BME280;40093;43.224;27.910;2023-01-28T00:33:55;99704.28;;;5.20;100.00
11523;BME280;40093;43.224;27.910;2023-01-28T00:36:24;99700.47;;;5.24;100.00
11523;BME280;40093;43.224;27.910;2023-01-28T00:38:52;99711.19;;;5.14;100.00
11523;BME280;40093;43.224;27.910;2023-01-28T00:41:21;99697.69;;;5.02;100.00
11523;BME280;40093;43.224;27.910;2023-01-28T00:43:49;99698.13;;;5.04;100.00
11523;BME280;40093;43.224;27.910;2023-01-28T00:46:16;99701.22;;;5.21;100.00
11523;BME280;40093;43.224;27.910;2023-01-28T00:48:43;99701.78;;;5.11;100.00
11523;BME280;40093;43.224;27.910;2023-01-28T00:51:13;99706.66;;;5.21;100.00
11523;BME280;40093;43.224;27.910;2023-01-28T00:53:40;99701.63;;;5.04;100.00
11523;BME280;40093;43.224;27.910;2023-01-28T00:56:10;99708.66;;;5.05;100.00
11523;BME280;40093;43.224;27.910;2023-01-28T00:58:38;99706.66;;;5.02;100.00
11523;BME280;40093;43.224;27.910;2023-01-28T01:01:09;99711.75;;;5.04;100.00
11523;BME280;40093;43.224;27.910;2023-01-28T01:03:37;99719.44;;;4.98;100.00
11523;BME280;40093;43.224;27.910;2023-01-28T01:06:05;99714.41;;;5.00;100.00
11523;BME280;40093;43.224;27.910;2023-01-28T01:08:33;99725.09;;;5.09;100.00
11523;BME280;40093;43.224;27.910;2023-01-28T01:11:00;99714.19;;;4.90;100.00
11523;BME280;40093;43.224;27.910;2023-01-28T01:13:28;99719.06;;;5.00;100.00
11523;BME280;40093;43.224;27.910;2023-01-28T01:16:03;99720.16;;;4.95;100.00
11523;BME280;40093;43.224;27.910;2023-01-28T01:18:30;99723.94;;;4.91;100.00
11523;BME280;40093;43.224;27.910;2023-01-28T01:20:58;99723.66;;;4.96;100.00
11523;BME280;40093;43.224;27.910;2023-01-28T01:23:25;99730.16;;;4.91;100.00
11523;BME280;40093;43.224;27.910;2023-01-28T01:25:54;99728.16;;;4.88;100.00
11523;BME280;40093;43.224;27.910;2023-01-28T01:28:21;99727.19;;;4.96;100.00
11523;BME280;40093;43.224;27.910;2023-01-28T01:30:48;99734.91;;;4.94;100.00
11523;BME280;40093;43.224;27.910;2023-01-28T01:33:15;99730.81;;;4.85;100.00
11523;BME280;40093;43.224;27.910;2023-01-28T01:35:42;99733.16;;;5.02;100.00
11523;BME280;40093;43.224;27.910;2023-01-28T01:38:10;99745.25;;;5.04;100.00
11523;BME280;40093;43.224;27.910;2023-01-28T01:40:37;99744.41;;;5.00;100.00
11523;BME280;40093;43.224;27.910;2023-01-28T01:43:14;99734.22;;;4.97;100.00
11523;BME280;40093;43.224;27.910;2023-01-28T01:45:42;99759.19;;;4.99;100.00
11523;BME280;40093;43.224;27.910;2023-01-28T01:48:14;99755.69;;;4.83;100.00
11523;BME280;40093;43.224;27.910;2023-01-28T01:50:48;99760.91;;;4.73;100.00
11523;BME280;40093;43.224;27.910;2023-01-28T01:53:19;99759.06;;;4.62;100.00
11523;BME280;40093;43.224;27.910;2023-01-28T01:55:49;99781.16;;;4.57;100.00
11523;BME280;40093;43.224;27.910;2023-01-28T01:58:21;99774.22;;;4.59;100.00
11523;BME280;40093;43.224;27.910;2023-01-28T02:00:50;99782.91;;;4.65;100.00
11523;BME280;40093;43.224;27.910;2023-01-28T02:03:20;99780.34;;;4.72;100.00
11523;BME280;40093;43.224;27.910;2023-01-28T02:05:50;99785.00;;;4.71;100.00
11523;BME280;40093;43.224;27.910;2023-01-28T02:08:17;99788.59;;;4.75;100.00
11523;BME280;40093;43.224;27.910;2023-01-28T02:10:49;99773.22;;;4.52;100.00
11523;BME280;40093;43.224;27.910;2023-01-28T02:13:18;99793.19;;;4.56;100.00
11523;BME280;40093;43.224;27.910;2023-01-28T02:15:47;99792.81;;;4.57;100.00
11523;BME280;40093;43.224;27.910;2023-01-28T02:18:15;99795.31;;;4.62;100.00
11523;BME280;40093;43.224;27.910;2023-01-28T02:20:56;99798.56;;;4.52;100.00
11523;BME280;40093;43.224;27.910;2023-01-28T02:23:42;99804.44;;;4.39;100.00
11523;BME280;40093;43.224;27.910;2023-01-28T02:26:42;99814.28;;;4.28;100.00
11523;BME280;40093;43.224;27.910;2023-01-28T02:29:16;99805.69;;;4.26;100.00
11523;BME280;40093;43.224;27.910;2023-01-28T02:31:51;99809.63;;;4.13;100.00
11523;BME280;40093;43.224;27.910;2023-01-28T02:34:25;99818.06;;;4.23;100.00
11523;BME280;40093;43.224;27.910;2023-01-28T02:36:59;99813.59;;;4.15;100.00
11523;BME280;40093;43.224;27.910;2023-01-28T02:39:35;99829.53;;;4.01;100.00
11523;BME280;40093;43.224;27.910;2023-01-28T02:42:05;99830.56;;;3.97;100.00
11523;BME280;40093;43.224;27.910;2023-01-28T02:44:34;99829.00;;;3.96;100.00
11523;BME280;40093;43.224;27.910;2023-01-28T02:47:01;99833.34;;;3.85;100.00
11523;BME280;40093;43.224;27.910;2023-01-28T02:49:49;99828.13;;;3.92;100.00
11523;BME280;40093;43.224;27.910;2023-01-28T02:52:24;99830.94;;;3.95;100.00
11523;BME280;40093;43.224;27.910;2023-01-28T02:55:15;99830.47;;;3.93;100.00
11523;BME280;40093;43.224;27.910;2023-01-28T02:57:52;99831.44;;;3.85;100.00
11523;BME280;40093;43.224;27.910;2023-01-28T03:00:26;99840.97;;;3.79;100.00
11523;BME280;40093;43.224;27.910;2023-01-28T03:03:06;99837.91;;;3.81;100.00
11523;BME280;40093;43.224;27.910;2023-01-28T03:05:41;99838.84;;;3.73;100.00
11523;BME280;40093;43.224;27.910;2023-01-28T03:08:31;99842.06;;;3.63;100.00
11523;BME280;40093;43.224;27.910;2023-01-28T03:11:17;99845.44;;;3.32;100.00
11523;BME280;40093;43.224;27.910;2023-01-28T03:14:02;99848.91;;;3.45;100.00
11523;BME280;40093;43.224;27.910;2023-01-28T03:16:49;99847.59;;;3.39;100.00
11523;BME280;40093;43.224;27.910;2023-01-28T03:19:35;99849.63;;;3.30;100.00
11523;BME280;40093;43.224;27.910;2023-01-28T03:22:20;99844.81;;;3.51;100.00
11523;BME280;40093;43.224;27.910;2023-01-28T03:25:06;99845.34;;;3.29;100.00
11523;BME280;40093;43.224;27.910;2023-01-28T03:27:55;99844.19;;;3.30;100.00
11523;BME280;40093;43.224;27.910;2023-01-28T03:30:43;99846.25;;;3.21;100.00
11523;BME280;40093;43.224;27.910;2023-01-28T03:33:30;99850.34;;;3.27;100.00
11523;BME280;40093;43.224;27.910;2023-01-28T03:36:15;99847.63;;;3.15;100.00
11523;BME280;40093;43.224;27.910;2023-01-28T03:38:59;99838.22;;;3.12;100.00
11523;BME280;40093;43.224;27.910;2023-01-28T03:41:27;99852.59;;;3.13;100.00
11523;BME280;40093;43.224;27.910;2023-01-28T03:43:54;99855.91;;;3.06;100.00
11523;BME280;40093;43.224;27.910;2023-01-28T03:46:21;99871.88;;;2.96;100.00
11523;BME280;40093;43.224;27.910;2023-01-28T03:48:49;99864.59;;;3.12;100.00
11523;BME280;40093;43.224;27.910;2023-01-28T03:51:15;99871.84;;;3.20;100.00
11523;BME280;40093;43.224;27.910;2023-01-28T03:53:42;99872.97;;;3.31;100.00
11523;BME280;40093;43.224;27.910;2023-01-28T03:56:09;99859.38;;;3.31;100.00
11523;BME280;40093;43.224;27.910;2023-01-28T03:58:42;99873.53;;;3.36;100.00
11523;BME280;40093;43.224;27.910;2023-01-28T04:01:20;99857.13;;;3.21;100.00
11523;BME280;40093;43.224;27.910;2023-01-28T04:03:49;99880.59;;;3.01;100.00
11523;BME280;40093;43.224;27.910;2023-01-28T04:06:16;99864.72;;;3.15;100.00
11523;BME280;40093;43.224;27.910;2023-01-28T04:08:43;99880.91;;;3.12;100.00
11523;BME280;40093;43.224;27.910;2023-01-28T04:11:17;99870.63;;;3.05;100.00
11523;BME280;40093;43.224;27.910;2023-01-28T04:13:46;99871.09;;;2.83;100.00
11523;BME280;40093;43.224;27.910;2023-01-28T04:16:15;99880.03;;;2.84;100.00
11523;BME280;40093;43.224;27.910;2023-01-28T04:18:43;99876.63;;;2.87;100.00
11523;BME280;40093;43.224;27.910;2023-01-28T04:21:12;99878.91;;;2.85;100.00
11523;BME280;40093;43.224;27.910;2023-01-28T04:23:39;99892.63;;;2.88;100.00
11523;BME280;40093;43.224;27.910;2023-01-28T04:26:06;99885.34;;;3.04;100.00
11523;BME280;40093;43.224;27.910;2023-01-28T04:28:32;99881.63;;;2.85;100.00
11523;BME280;40093;43.224;27.910;2023-01-28T04:30:59;99883.75;;;3.03;100.00
11523;BME280;40093;43.224;27.910;2023-01-28T04:33:26;99893.03;;;3.14;100.00
11523;BME280;40093;43.224;27.910;2023-01-28T04:35:53;99904.50;;;2.96;100.00
11523;BME280;40093;43.224;27.910;2023-01-28T04:38:21;99886.81;;;3.02;100.00
11523;BME280;40093;43.224;27.910;2023-01-28T04:40:49;99901.34;;;2.94;100.00
11523;BME280;40093;43.224;27.910;2023-01-28T04:43:16;99888.31;;;2.99;100.00
11523;BME280;40093;43.224;27.910;2023-01-28T04:45:44;99881.50;;;3.05;100.00
11523;BME280;40093;43.224;27.910;2023-01-28T04:48:11;99878.47;;;2.83;100.00
11523;BME280;40093;43.224;27.910;2023-01-28T04:50:39;99891.13;;;2.91;100.00
11523;BME280;40093;43.224;27.910;2023-01-28T04:53:06;99888.53;;;2.82;100.00
11523;BME280;40093;43.224;27.910;2023-01-28T04:55:34;99890.91;;;2.96;100.00
11523;BME280;40093;43.224;27.910;2023-01-28T04:58:01;99880.03;;;2.84;100.00
11523;BME280;40093;43.224;27.910;2023-01-28T05:00:28;99887.72;;;2.82;100.00
11523;BME280;40093;43.224;27.910;2023-01-28T05:02:56;99885.69;;;2.79;100.00
11523;BME280;40093;43.224;27.910;2023-01-28T05:05:22;99895.53;;;2.83;100.00
11523;BME280;40093;43.224;27.910;2023-01-28T05:07:50;99890.66;;;2.65;100.00
11523;BME280;40093;43.224;27.910;2023-01-28T05:10:17;99895.97;;;2.61;100.00
11523;BME280;40093;43.224;27.910;2023-01-28T05:12:47;99902.84;;;2.47;100.00
11523;BME280;40093;43.224;27.910;2023-01-28T05:15:15;99892.56;;;2.52;100.00
11523;BME280;40093;43.224;27.910;2023-01-28T05:17:42;99906.81;;;2.49;100.00
11523;BME280;40093;43.224;27.910;2023-01-28T05:20:11;99924.16;;;2.57;100.00
11523;BME280;40093;43.224;27.910;2023-01-28T05:22:38;99903.97;;;2.34;100.00
11523;BME280;40093;43.224;27.910;2023-01-28T05:25:07;99906.25;;;2.44;100.00
11523;BME280;40093;43.224;27.910;2023-01-28T05:27:35;99912.81;;;2.43;100.00
11523;BME280;40093;43.224;27.910;2023-01-28T05:30:04;99913.00;;;2.38;100.00
11523;BME280;40093;43.224;27.910;2023-01-28T05:32:32;99922.72;;;2.39;100.00
11523;BME280;40093;43.224;27.910;2023-01-28T05:34:59;99937.22;;;2.31;100.00
11523;BME280;40093;43.224;27.910;2023-01-28T05:37:26;99921.09;;;2.14;100.00
11523;BME280;40093;43.224;27.910;2023-01-28T05:39:52;99938.09;;;2.23;100.00
11523;BME280;40093;43.224;27.910;2023-01-28T05:42:19;99933.47;;;2.03;100.00
11523;BME280;40093;43.224;27.910;2023-01-28T05:44:47;99893.50;;;2.12;100.00
11523;BME280;40093;43.224;27.910;2023-01-28T05:47:15;99899.28;;;1.90;100.00
11523;BME280;40093;43.224;27.910;2023-01-28T05:49:42;99953.16;;;2.00;100.00
11523;BME280;40093;43.224;27.910;2023-01-28T05:52:08;99925.66;;;2.22;100.00
11523;BME280;40093;43.224;27.910;2023-01-28T05:54:35;99925.59;;;2.10;100.00
11523;BME280;40093;43.224;27.910;2023-01-28T05:57:02;99945.72;;;1.89;100.00
11523;BME280;40093;43.224;27.910;2023-01-28T05:59:30;99944.41;;;1.95;100.00
11523;BME280;40093;43.224;27.910;2023-01-28T06:01:56;99958.03;;;2.07;100.00
11523;BME280;40093;43.224;27.910;2023-01-28T06:04:25;99953.81;;;1.97;100.00
11523;BME280;40093;43.224;27.910;2023-01-28T06:06:52;99972.59;;;2.02;100.00
11523;BME280;40093;43.224;27.910;2023-01-28T06:09:18;99945.47;;;2.02;100.00
11523;BME280;40093;43.224;27.910;2023-01-28T06:11:45;99972.06;;;2.09;100.00
11523;BME280;40093;43.224;27.910;2023-01-28T06:14:12;99991.66;;;2.14;100.00
11523;BME280;40093;43.224;27.910;2023-01-28T06:16:39;99986.22;;;2.14;100.00
11523;BME280;40093;43.224;27.910;2023-01-28T06:19:06;99993.19;;;2.03;100.00
11523;BME280;40093;43.224;27.910;2023-01-28T06:21:34;99985.13;;;2.27;100.00
11523;BME280;40093;43.224;27.910;2023-01-28T06:24:01;99981.28;;;2.28;100.00
11523;BME280;40093;43.224;27.910;2023-01-28T06:26:28;99987.53;;;2.29;100.00
11523;BME280;40093;43.224;27.910;2023-01-28T06:28:55;99983.81;;;2.13;100.00
11523;BME280;40093;43.224;27.910;2023-01-28T06:31:21;99964.25;;;2.07;100.00
11523;BME280;40093;43.224;27.910;2023-01-28T06:33:48;99980.22;;;1.88;100.00
11523;BME280;40093;43.224;27.910;2023-01-28T06:36:15;99984.13;;;1.99;100.00
11523;BME280;40093;43.224;27.910;2023-01-28T06:38:44;99974.59;;;1.93;100.00
11523;BME280;40093;43.224;27.910;2023-01-28T06:41:11;100001.59;;;2.10;100.00
11523;BME280;40093;43.224;27.910;2023-01-28T06:43:38;100000.25;;;2.16;100.00
11523;BME280;40093;43.224;27.910;2023-01-28T06:46:05;100002.50;;;2.14;100.00
11523;BME280;40093;43.224;27.910;2023-01-28T06:48:33;100003.84;;;2.08;100.00
11523;BME280;40093;43.224;27.910;2023-01-28T06:51:00;99976.72;;;2.08;100.00
11523;BME280;40093;43.224;27.910;2023-01-28T06:53:27;100007.59;;;1.95;100.00
11523;BME280;40093;43.224;27.910;2023-01-28T06:55:55;100017.00;;;1.98;100.00
11523;BME280;40093;43.224;27.910;2023-01-28T06:58:22;100014.53;;;1.84;100.00
11523;BME280;40093;43.224;27.910;2023-01-28T07:00:49;100022.63;;;1.93;100.00
11523;BME280;40093;43.224;27.910;2023-01-28T07:03:15;99987.88;;;2.07;100.00
11523;BME280;40093;43.224;27.910;2023-01-28T07:05:42;100003.91;;;2.00;100.00
11523;BME280;40093;43.224;27.910;2023-01-28T07:08:10;100008.47;;;2.08;100.00
11523;BME280;40093;43.224;27.910;2023-01-28T07:10:37;100018.53;;;2.07;100.00
11523;BME280;40093;43.224;27.910;2023-01-28T07:13:05;99993.63;;;2.05;100.00
11523;BME280;40093;43.224;27.910;2023-01-28T07:15:32;100019.00;;;2.09;100.00
11523;BME280;40093;43.224;27.910;2023-01-28T07:17:59;100020.97;;;2.21;100.00
11523;BME280;40093;43.224;27.910;2023-01-28T07:20:26;100039.44;;;2.27;100.00
11523;BME280;40093;43.224;27.910;2023-01-28T07:22:52;100026.66;;;2.28;100.00
11523;BME280;40093;43.224;27.910;2023-01-28T07:25:19;100059.44;;;2.43;100.00
11523;BME280;40093;43.224;27.910;2023-01-28T07:27:48;100059.81;;;2.53;100.00
11523;BME280;40093;43.224;27.910;2023-01-28T07:30:18;100076.25;;;2.57;100.00
11523;BME280;40093;43.224;27.910;2023-01-28T07:32:46;100066.13;;;2.78;100.00
11523;BME280;40093;43.224;27.910;2023-01-28T07:35:13;100080.31;;;2.83;100.00
11523;BME280;40093;43.224;27.910;2023-01-28T07:37:40;100075.03;;;2.99;100.00
11523;BME280;40093;43.224;27.910;2023-01-28T07:40:08;100078.44;;;2.75;100.00
11523;BME280;40093;43.224;27.910;2023-01-28T07:42:35;100077.91;;;2.82;100.00
11523;BME280;40093;43.224;27.910;2023-01-28T07:45:02;100083.06;;;2.95;100.00
11523;BME280;40093;43.224;27.910;2023-01-28T07:47:31;100089.34;;;3.20;100.00
11523;BME280;40093;43.224;27.910;2023-01-28T07:49:58;100084.88;;;3.36;100.00
11523;BME280;40093;43.224;27.910;2023-01-28T07:52:24;100082.59;;;3.62;100.00
11523;BME280;40093;43.224;27.910;2023-01-28T07:54:51;100083.72;;;3.85;100.00
11523;BME280;40093;43.224;27.910;2023-01-28T07:57:18;100093.44;;;4.10;100.00
11523;BME280;40093;43.224;27.910;2023-01-28T07:59:48;100096.50;;;4.32;100.00
11523;BME280;40093;43.224;27.910;2023-01-28T08:02:15;100094.56;;;4.33;100.00
11523;BME280;40093;43.224;27.910;2023-01-28T08:04:45;100089.59;;;4.23;100.00
11523;BME280;40093;43.224;27.910;2023-01-28T08:07:12;100093.47;;;3.98;100.00
11523;BME280;40093;43.224;27.910;2023-01-28T08:09:38;100098.03;;;3.94;100.00
11523;BME280;40093;43.224;27.910;2023-01-28T08:12:05;100115.94;;;3.95;100.00
11523;BME280;40093;43.224;27.910;2023-01-28T08:14:32;100109.16;;;4.01;100.00
11523;BME280;40093;43.224;27.910;2023-01-28T08:16:59;100114.31;;;4.30;100.00
11523;BME280;40093;43.224;27.910;2023-01-28T08:19:26;100119.34;;;4.04;100.00
11523;BME280;40093;43.224;27.910;2023-01-28T08:21:54;100122.06;;;4.04;100.00
11523;BME280;40093;43.224;27.910;2023-01-28T08:24:21;100136.13;;;3.94;100.00
11523;BME280;40093;43.224;27.910;2023-01-28T08:26:48;100136.13;;;4.06;100.00
11523;BME280;40093;43.224;27.910;2023-01-28T08:29:15;100140.44;;;3.59;100.00
11523;BME280;40093;43.224;27.910;2023-01-28T08:31:42;100137.97;;;3.90;100.00
11523;BME280;40093;43.224;27.910;2023-01-28T08:34:09;100127.28;;;3.61;100.00
11523;BME280;40093;43.224;27.910;2023-01-28T08:36:36;100146.31;;;3.61;100.00
11523;BME280;40093;43.224;27.910;2023-01-28T08:39:04;100158.09;;;3.53;100.00
11523;BME280;40093;43.224;27.910;2023-01-28T08:41:31;100157.72;;;3.42;100.00
11523;BME280;40093;43.224;27.910;2023-01-28T08:43:58;100166.00;;;3.46;100.00
11523;BME280;40093;43.224;27.910;2023-01-28T08:46:25;100157.59;;;3.39;100.00
11523;BME280;40093;43.224;27.910;2023-01-28T08:49:05;100147.88;;;3.38;100.00
11523;BME280;40093;43.224;27.910;2023-01-28T08:51:32;100149.03;;;3.16;100.00
11523;BME280;40093;43.224;27.910;2023-01-28T08:53:59;100138.97;;;3.17;100.00
11523;BME280;40093;43.224;27.910;2023-01-28T08:56:28;100146.94;;;3.34;100.00
11523;BME280;40093;43.224;27.910;2023-01-28T08:58:54;100160.78;;;3.41;100.00
11523;BME280;40093;43.224;27.910;2023-01-28T09:01:21;100152.41;;;3.46;100.00
11523;BME280;40093;43.224;27.910;2023-01-28T09:03:48;100159.97;;;3.40;100.00
11523;BME280;40093;43.224;27.910;2023-01-28T09:06:15;100146.06;;;3.42;100.00
11523;BME280;40093;43.224;27.910;2023-01-28T09:08:42;100145.16;;;3.38;100.00
11523;BME280;40093;43.224;27.910;2023-01-28T09:11:09;100141.50;;;3.46;100.00
11523;BME280;40093;43.224;27.910;2023-01-28T09:13:37;100152.91;;;3.60;100.00
11523;BME280;40093;43.224;27.910;2023-01-28T09:16:04;100157.97;;;3.61;100.00
11523;BME280;40093;43.224;27.910;2023-01-28T09:18:31;100152.78;;;3.56;100.00
11523;BME280;40093;43.224;27.910;2023-01-28T09:20:58;100133.16;;;3.06;100.00
11523;BME280;40093;43.224;27.910;2023-01-28T09:23:25;100142.47;;;3.17;100.00
11523;BME280;40093;43.224;27.910;2023-01-28T09:25:58;100153.47;;;3.21;100.00
11523;BME280;40093;43.224;27.910;2023-01-28T09:28:25;100162.56;;;3.25;100.00
11523;BME280;40093;43.224;27.910;2023-01-28T09:31:00;100171.38;;;3.22;100.00
11523;BME280;40093;43.224;27.910;2023-01-28T09:33:26;100174.09;;;3.22;100.00
11523;BME280;40093;43.224;27.910;2023-01-28T09:35:53;100173.72;;;3.11;100.00
11523;BME280;40093;43.224;27.910;2023-01-28T09:38:20;100187.22;;;3.20;100.00
11523;BME280;40093;43.224;27.910;2023-01-28T09:40:47;100171.38;;;3.22;100.00
11523;BME280;40093;43.224;27.910;2023-01-28T09:43:34;100174.22;;;3.25;100.00
11523;BME280;40093;43.224;27.910;2023-01-28T09:46:11;100173.94;;;3.39;100.00
11523;BME280;40093;43.224;27.910;2023-01-28T09:48:41;100175.69;;;3.23;100.00
11523;BME280;40093;43.224;27.910;2023-01-28T09:51:12;100169.34;;;3.19;100.00
11523;BME280;40093;43.224;27.910;2023-01-28T09:53:44;100167.19;;;3.24;100.00
11523;BME280;40093;43.224;27.910;2023-01-28T09:56:18;100172.00;;;3.07;100.00
11523;BME280;40093;43.224;27.910;2023-01-28T09:58:50;100163.63;;;3.12;100.00
11523;BME280;40093;43.224;27.910;2023-01-28T10:01:39;100160.72;;;3.17;100.00
11523;BME280;40093;43.224;27.910;2023-01-28T10:04:23;100154.59;;;3.20;100.00
11523;BME280;40093;43.224;27.910;2023-01-28T10:06:58;100154.50;;;3.28;100.00
11523;BME280;40093;43.224;27.910;2023-01-28T10:09:36;100142.22;;;3.55;100.00
11523;BME280;40093;43.224;27.910;2023-01-28T10:12:22;100135.69;;;3.68;100.00
11523;BME280;40093;43.224;27.910;2023-01-28T10:15:05;100140.69;;;3.90;100.00
11523;BME280;40093;43.224;27.910;2023-01-28T10:17:41;100137.16;;;4.01;100.00
11523;BME280;40093;43.224;27.910;2023-01-28T10:20:17;100135.31;;;3.93;100.00
11523;BME280;40093;43.224;27.910;2023-01-28T10:22:50;100131.91;;;3.60;100.00
11523;BME280;40093;43.224;27.910;2023-01-28T10:25:20;100131.81;;;3.57;100.00
11523;BME280;40093;43.224;27.910;2023-01-28T10:27:48;100140.19;;;3.64;100.00
11523;BME280;40093;43.224;27.910;2023-01-28T10:30:18;100135.69;;;3.80;100.00
11523;BME280;40093;43.224;27.910;2023-01-28T10:32:51;100135.75;;;3.59;100.00
11523;BME280;40093;43.224;27.910;2023-01-28T10:35:19;100129.53;;;3.59;100.00
11523;BME280;40093;43.224;27.910;2023-01-28T10:37:46;100139.16;;;3.44;100.00
11523;BME280;40093;43.224;27.910;2023-01-28T10:40:15;100134.13;;;3.34;100.00
11523;BME280;40093;43.224;27.910;2023-01-28T10:42:42;100141.34;;;3.18;100.00
11523;BME280;40093;43.224;27.910;2023-01-28T10:45:17;100138.53;;;3.15;100.00
11523;BME280;40093;43.224;27.910;2023-01-28T10:47:47;100151.84;;;3.08;100.00
11523;BME280;40093;43.224;27.910;2023-01-28T10:50:22;100146.19;;;3.13;100.00
11523;BME280;40093;43.224;27.910;2023-01-28T10:52:53;100140.75;;;3.13;100.00
11523;BME280;40093;43.224;27.910;2023-01-28T10:55:21;100160.88;;;3.00;100.00
11523;BME280;40093;43.224;27.910;2023-01-28T10:57:48;100161.81;;;3.04;100.00
11523;BME280;40093;43.224;27.910;2023-01-28T11:00:24;100155.03;;;3.10;100.00
11523;BME280;40093;43.224;27.910;2023-01-28T11:02:53;100169.09;;;3.24;100.00
11523;BME280;40093;43.224;27.910;2023-01-28T11:05:23;100172.09;;;3.31;100.00
11523;BME280;40093;43.224;27.910;2023-01-28T11:08:02;100159.75;;;3.01;100.00
11523;BME280;40093;43.224;27.910;2023-01-28T11:10:30;100168.19;;;3.20;100.00
11523;BME280;40093;43.224;27.910;2023-01-28T11:13:00;100177.03;;;3.17;100.00
11523;BME280;40093;43.224;27.910;2023-01-28T11:15:27;100181.53;;;3.13;100.00
11523;BME280;40093;43.224;27.910;2023-01-28T11:17:57;100188.91;;;3.12;100.00
11523;BME280;40093;43.224;27.910;2023-01-28T11:20:27;100183.78;;;3.11;100.00
11523;BME280;40093;43.224;27.910;2023-01-28T11:22:55;100186.50;;;3.31;100.00
11523;BME280;40093;43.224;27.910;2023-01-28T11:25:27;100173.72;;;3.11;100.00
11523;BME280;40093;43.224;27.910;2023-01-28T11:27:56;100176.22;;;3.16;100.00
11523;BME280;40093;43.224;27.910;2023-01-28T11:30:26;100186.66;;;3.14;100.00
11523;BME280;40093;43.224;27.910;2023-01-28T11:32:55;100192.44;;;2.92;100.00
11523;BME280;40093;43.224;27.910;2023-01-28T11:35:27;100186.88;;;3.09;100.00
11523;BME280;40093;43.224;27.910;2023-01-28T11:37:55;100181.00;;;3.19;100.00
11523;BME280;40093;43.224;27.910;2023-01-28T11:40:23;100178.53;;;2.94;100.00
11523;BME280;40093;43.224;27.910;2023-01-28T11:42:50;100191.16;;;3.10;100.00
11523;BME280;40093;43.224;27.910;2023-01-28T11:45:26;100167.75;;;3.18;100.00
11523;BME280;40093;43.224;27.910;2023-01-28T11:48:05;100183.28;;;2.97;100.00
11523;BME280;40093;43.224;27.910;2023-01-28T11:50:44;100183.47;;;2.92;100.00
11523;BME280;40093;43.224;27.910;2023-01-28T11:53:49;100180.75;;;2.92;100.00
11523;BME280;40093;43.224;27.910;2023-01-28T11:56:31;100186.06;;;3.09;100.00
11523;BME280;40093;43.224;27.910;2023-01-28T11:59:15;100169.47;;;3.02;100.00
11523;BME280;40093;43.224;27.910;2023-01-28T12:01:50;100197.06;;;2.71;100.00
11523;BME280;40093;43.224;27.910;2023-01-28T12:04:33;100196.88;;;2.76;100.00
11523;BME280;40093;43.224;27.910;2023-01-28T12:07:22;100191.66;;;2.71;100.00
11523;BME280;40093;43.224;27.910;2023-01-28T12:09:57;100200.25;;;2.73;100.00
11523;BME280;40093;43.224;27.910;2023-01-28T12:12:43;100202.84;;;2.70;100.00
11523;BME280;40093;43.224;27.910;2023-01-28T12:15:34;100205.97;;;2.80;100.00
11523;BME280;40093;43.224;27.910;2023-01-28T12:18:17;100203.16;;;2.89;100.00
11523;BME280;40093;43.224;27.910;2023-01-28T12:20:53;100207.41;;;2.78;100.00
11523;BME280;40093;43.224;27.910;2023-01-28T12:23:34;100212.38;;;2.96;100.00
11523;BME280;40093;43.224;27.910;2023-01-28T12:26:09;100200.06;;;2.99;100.00
11523;BME280;40093;43.224;27.910;2023-01-28T12:28:48;100216.84;;;2.80;100.00
11523;BME280;40093;43.224;27.910;2023-01-28T12:31:34;100212.84;;;2.78;100.00
11523;BME280;40093;43.224;27.910;2023-01-28T12:34:22;100228.47;;;2.81;100.00
11523;BME280;40093;43.224;27.910;2023-01-28T12:36:58;100214.84;;;2.89;100.00
11523;BME280;40093;43.224;27.910;2023-01-28T12:39:37;100215.63;;;2.90;100.00
11523;BME280;40093;43.224;27.910;2023-01-28T12:42:10;100225.84;;;2.93;100.00
11523;BME280;40093;43.224;27.910;2023-01-28T12:44:42;100229.94;;;2.99;100.00
11523;BME280;40093;43.224;27.910;2023-01-28T12:47:16;100223.13;;;2.93;100.00
11523;BME280;40093;43.224;27.910;2023-01-28T12:49:49;100234.94;;;2.97;100.00
11523;BME280;40093;43.224;27.910;2023-01-28T12:52:21;100231.53;;;3.00;100.00
11523;BME280;40093;43.224;27.910;2023-01-28T12:54:58;100247.59;;;2.93;100.00
11523;BME280;40093;43.224;27.910;2023-01-28T12:57:27;100250.78;;;2.95;100.00
11523;BME280;40093;43.224;27.910;2023-01-28T13:00:00;100251.69;;;2.99;100.00
11523;BME280;40093;43.224;27.910;2023-01-28T13:02:33;100257.91;;;2.79;100.00
11523;BME280;40093;43.224;27.910;2023-01-28T13:05:08;100255.94;;;2.88;100.00